Terminal Aerodrome Forecast
Issued by NWS

Home | Current Version | Previous Version | Text Only | Print | Product List | Glossary On
Versions: 1 2 3 4 5 6 7 8 9 10 11 12 13 14 15 16 17
332
FTUS42 KMHX 190726 AAA
TAFPGV
TAF AMD
KPGV 190726Z 1907/2006 00000KT 1SM BR VV007
     FM191100 02003KT P6SM SKC
     FM191400 04004KT P6SM SCT250
      AMD LTD TO CLD VIS AND WIND=

USA.gov is the U.S. government's official web portal to all federal, state and local government web resources and services.